23  °C
Temperature
7  °C
  Dewpoint
36  %
   Humidity
Temp | Dewpoint | Humidity
5  km/h
Wind Speed
3  mph
Wind Speed
3  kts
Wind Speed
150°
South South
East

Wind Speed
Mostly Scattered
Clouds
Pressure 1021.92 (hPa) - 30.18 (in)
Visibility 6.2 (mi) - 10.0 (km)

Current Conditions
EGBJ
Location 6km (3.2mi)
Metar :EGBJ 091650Z 15003KT 9999 SCT048 23/07 Q1022
Thu 9th April 16:50 pm

Airport
https://www.checkwx.com/
  Metar Aviation API Data Provided by https://www.checkwx.com/ CSS/SVG/PHP scripts by weather34.com © 2015-2020